Time;durP1;ratioP1;P1;durP2;ratioP2;P2;SDS_P1;SDS_P2;PMS_P1;PMS_P2;Temp;Humidity;BMP_temperature;BMP_pressure;BME280_temperature;BME280_humidity;BME280_pressure;Samples;Min_cycle;Max_cycle;Signal;HPM_P1;HPM_P2
2022/06/14 00:01:45;;;;;;;;;;;;;;;14.98;52.81;101902.53;5060531;28;19960;-77
2022/06/14 00:04:10;;;;;;;;;;;;;;;14.96;53.42;101895.59;5063676;28;20613;-77
2022/06/14 00:06:36;;;;;;;;;;;;;;;14.98;53.06;101899.06;5066045;28;19991;-77
2022/06/14 00:09:02;;;;;;;;;;;;;;;14.92;53.27;101897.41;5060178;28;19943;-77
2022/06/14 00:11:29;;;;;;;;;;;;;;;14.90;53.73;101899.22;5059670;28;19928;-77
2022/06/14 00:13:56;;;;;;;;;;;;;;;14.90;52.83;101900.97;5067366;28;20070;-77
2022/06/14 00:16:22;;;;;;;;;;;;;;;14.80;53.54;101908.13;5066537;28;20280;-77
2022/06/14 00:18:48;;;;;;;;;;;;;;;14.82;53.29;101903.75;5064813;28;19931;-77
2022/06/14 00:21:13;;;;;;;;;;;;;;;14.67;53.46;101914.50;5065851;28;19916;-77
2022/06/14 00:23:39;;;;;;;;;;;;;;;14.60;52.62;101916.34;5062632;28;20018;-77
2022/06/14 00:26:04;;;;;;;;;;;;;;;14.76;52.22;101907.34;5057059;28;19944;-76
2022/06/14 00:28:31;;;;;;;;;;;;;;;14.67;52.67;101917.97;5058244;28;20299;-77
2022/06/14 00:30:57;;;;;;;;;;;;;;;14.69;53.14;101915.31;5060565;28;19928;-77
2022/06/14 00:33:23;;;;;;;;;;;;;;;14.63;52.81;101926.75;5061098;28;20675;-77
2022/06/14 00:35:48;;;;;;;;;;;;;;;14.76;52.44;101928.28;5063291;28;19997;-77
2022/06/14 00:38:15;;;;;;;;;;;;;;;14.72;52.67;101920.47;5060614;28;19927;-77
2022/06/14 00:40:41;;;;;;;;;;;;;;;14.76;52.03;101919.56;5063208;28;20345;-77
2022/06/14 00:43:15;;;;;;;;;;;;;;;14.67;52.86;101915.34;5062308;28;19924;-77
2022/06/14 00:45:40;;;;;;;;;;;;;;;14.68;52.64;101911.00;5064431;28;20071;-76
2022/06/14 00:48:12;;;;;;;;;;;;;;;14.71;52.50;101913.56;5067248;28;20011;-77
2022/06/14 00:50:40;;;;;;;;;;;;;;;14.76;52.04;101917.81;5065345;28;19916;-77
2022/06/14 00:53:29;;;;;;;;;;;;;;;14.72;52.69;101908.28;5062610;28;19927;-76
2022/06/14 00:56:00;;;;;;;;;;;;;;;14.72;52.96;101910.88;5051029;28;19929;-77
2022/06/14 00:58:31;;;;;;;;;;;;;;;14.64;53.17;101906.69;5060275;28;20406;-77
2022/06/14 01:00:59;;;;;;;;;;;;;;;14.63;52.96;101902.34;5061655;28;20287;-77
2022/06/14 01:03:27;;;;;;;;;;;;;;;14.57;52.85;101900.72;5067396;28;20019;-77
2022/06/14 01:06:05;;;;;;;;;;;;;;;14.53;53.60;101908.66;5062026;28;20023;-77
2022/06/14 01:08:31;;;;;;;;;;;;;;;14.42;53.59;101908.00;5060879;28;20429;-76
2022/06/14 01:10:56;;;;;;;;;;;;;;;14.56;53.32;101895.53;5055322;28;20391;-77
2022/06/14 01:13:22;;;;;;;;;;;;;;;14.58;53.08;101901.59;5065893;28;19973;-77
2022/06/14 01:15:49;;;;;;;;;;;;;;;14.55;53.10;101901.66;5066121;28;19936;-77
2022/06/14 01:18:15;;;;;;;;;;;;;;;14.57;53.88;101903.34;5066720;28;20421;-77
2022/06/14 01:20:41;;;;;;;;;;;;;;;14.55;53.74;101897.28;5069033;28;19920;-77
2022/06/14 01:23:08;;;;;;;;;;;;;;;14.36;54.45;101901.13;5065851;28;19993;-77
2022/06/14 01:25:36;;;;;;;;;;;;;;;14.29;54.99;101900.38;5065290;28;19927;-77
2022/06/14 01:28:03;;;;;;;;;;;;;;;14.18;55.70;101891.00;5065864;28;20613;-77
2022/06/14 01:30:35;;;;;;;;;;;;;;;14.16;55.56;101893.66;5068691;28;20041;-77
2022/06/14 01:33:02;;;;;;;;;;;;;;;14.09;54.55;101892.03;5066553;28;19920;-77
2022/06/14 01:35:32;;;;;;;;;;;;;;;14.06;55.22;101893.84;5069404;28;20122;-77
2022/06/14 01:37:57;;;;;;;;;;;;;;;14.06;55.38;101893.84;5069195;28;21428;-77
2022/06/14 01:40:42;;;;;;;;;;;;;;;14.22;55.03;101890.94;5066744;28;19925;-79
2022/06/14 01:43:19;;;;;;;;;;;;;;;14.23;54.64;101882.19;5068740;28;19925;-79
2022/06/14 01:45:47;;;;;;;;;;;;;;;14.31;54.42;101882.94;5065242;28;19947;-79
2022/06/14 01:48:18;;;;;;;;;;;;;;;14.29;53.99;101870.78;5067103;28;20058;-79
2022/06/14 01:53:46;;;;;;;;;;;;;;;14.17;55.05;101868.41;5061332;28;19971;-79
2022/06/14 01:56:29;;;;;;;;;;;;;;;13.89;55.81;101872.38;5070728;28;19929;-79
2022/06/14 01:59:00;;;;;;;;;;;;;;;14.16;54.99;101871.88;5064805;28;19920;-79
2022/06/14 02:01:40;;;;;;;;;;;;;;;14.23;55.35;101873.50;5070515;28;19927;-79
2022/06/14 02:07:14;;;;;;;;;;;;;;;14.12;55.37;101876.31;5030530;28;20400;-79
2022/06/14 02:09:39;;;;;;;;;;;;;;;14.03;55.22;101876.47;5061430;28;20311;-79
2022/06/14 02:12:06;;;;;;;;;;;;;;;13.67;56.40;101870.09;5067060;28;19927;-79
2022/06/14 02:14:55;;;;;;;;;;;;;;;14.01;55.16;101867.81;5064569;28;19928;-79
2022/06/14 02:17:35;;;;;;;;;;;;;;;13.96;55.36;101869.66;5052268;28;19959;-79
2022/06/14 02:20:03;;;;;;;;;;;;;;;13.90;55.69;101872.34;5064654;28;20510;-79
2022/06/14 02:22:41;;;;;;;;;;;;;;;13.98;54.96;101875.69;5062838;28;19924;-79
2022/06/14 02:25:14;;;;;;;;;;;;;;;13.93;55.24;101869.69;5065806;28;19950;-79
2022/06/14 02:27:50;;;;;;;;;;;;;;;13.96;54.88;101871.38;5063728;28;20032;-79
2022/06/14 02:30:24;;;;;;;;;;;;;;;13.96;55.19;101874.00;5066061;28;19971;-79
2022/06/14 02:32:52;;;;;;;;;;;;;;;14.06;55.02;101867.72;5059572;28;19925;-79
2022/06/14 02:35:21;;;;;;;;;;;;;;;13.93;55.56;101868.81;5061999;28;19982;-79
2022/06/14 02:37:47;;;;;;;;;;;;;;;13.92;55.83;101870.56;5060877;28;19935;-79
2022/06/14 02:40:15;;;;;;;;;;;;;;;13.83;55.58;101872.47;5066387;28;19924;-79
2022/06/14 02:42:53;;;;;;;;;;;;;;;13.86;55.43;101864.59;5078636;28;19924;-79
2022/06/14 02:45:34;;;;;;;;;;;;;;;13.86;55.68;101865.44;5057830;28;20013;-79
2022/06/14 02:48:05;;;;;;;;;;;;;;;13.91;55.52;101868.00;5063892;28;20003;-79
2022/06/14 02:50:38;;;;;;;;;;;;;;;13.94;55.36;101870.56;5062721;28;19979;-79
2022/06/14 02:53:14;;;;;;;;;;;;;;;13.76;56.17;101866.47;5063947;28;19950;-79
2022/06/14 02:55:54;;;;;;;;;;;;;;;13.65;56.35;101871.00;5058135;28;19925;-79
2022/06/14 02:58:45;;;;;;;;;;;;;;;13.67;56.01;101864.88;5065942;28;19973;-79
2022/06/14 03:01:18;;;;;;;;;;;;;;;13.68;55.81;101860.53;5031055;28;20027;-79
2022/06/14 03:03:49;;;;;;;;;;;;;;;13.81;55.19;101855.97;5061425;28;20417;-79
2022/06/14 03:06:27;;;;;;;;;;;;;;;13.73;55.16;101862.19;5063120;28;19985;-78
2022/06/14 03:09:03;;;;;;;;;;;;;;;13.76;54.86;101858.66;5060974;28;20023;-78
2022/06/14 03:11:31;;;;;;;;;;;;;;;13.76;55.34;101862.13;5059412;28;19927;-78
2022/06/14 03:14:02;;;;;;;;;;;;;;;13.56;55.87;101858.09;5065624;28;19942;-78
2022/06/14 03:16:46;;;;;;;;;;;;;;;13.71;55.03;101858.75;5061957;28;19974;-78
2022/06/14 03:19:30;;;;;;;;;;;;;;;13.71;55.09;101861.34;5059496;28;19978;-78
2022/06/14 03:22:08;;;;;;;;;;;;;;;13.64;54.43;101864.91;5063907;28;20023;-78
2022/06/14 03:25:00;;;;;;;;;;;;;;;13.79;54.42;101857.75;5062682;28;21809;-78
2022/06/14 03:27:25;;;;;;;;;;;;;;;13.66;54.89;101857.94;5038794;28;20383;-78
2022/06/14 03:30:11;;;;;;;;;;;;;;;13.74;55.08;101860.44;5063825;28;20006;-78
2022/06/14 03:33:05;;;;;;;;;;;;;;;13.74;55.27;101863.91;5066073;28;20303;-78
2022/06/14 03:35:33;;;;;;;;;;;;;;;13.67;55.09;101864.88;4995686;28;19944;-78
2022/06/14 03:38:01;;;;;;;;;;;;;;;13.67;55.44;101859.66;5066208;28;19924;-78
2022/06/14 03:40:26;;;;;;;;;;;;;;;13.72;54.78;101857.88;5068346;28;19925;-78
2022/06/14 03:42:52;;;;;;;;;;;;;;;13.62;55.50;101861.47;5065564;28;19931;-78
2022/06/14 03:45:21;;;;;;;;;;;;;;;13.39;56.03;101860.09;5063973;28;19938;-78
2022/06/14 03:47:47;;;;;;;;;;;;;;;13.56;55.59;101858.94;5064920;28;19963;-78
2022/06/14 03:50:14;;;;;;;;;;;;;;;13.64;55.91;101851.84;5064174;28;19963;-78
2022/06/14 03:53:08;;;;;;;;;;;;;;;13.70;55.95;101857.00;5064853;28;19920;-78
2022/06/14 03:55:52;;;;;;;;;;;;;;;13.58;56.17;101862.38;5048632;28;19927;-78
2022/06/14 03:58:36;;;;;;;;;;;;;;;13.41;56.69;101864.41;5062742;28;19999;-78
2022/06/14 04:01:15;;;;;;;;;;;;;;;13.55;56.08;101856.38;5058207;28;19920;-78
2022/06/14 04:03:47;;;;;;;;;;;;;;;13.29;56.93;101858.50;5064231;28;19925;-78
2022/06/14 04:06:27;;;;;;;;;;;;;;;13.45;56.91;101860.00;5066268;28;19919;-78
2022/06/14 04:09:13;;;;;;;;;;;;;;;13.51;57.45;101859.91;5061454;28;19917;-78
2022/06/14 04:11:41;;;;;;;;;;;;;;;13.22;57.32;101860.38;5061544;28;19931;-78
2022/06/14 04:14:16;;;;;;;;;;;;;;;13.12;57.89;101861.38;5061785;28;19925;-78
2022/06/14 04:17:07;;;;;;;;;;;;;;;13.29;57.39;101864.59;5063187;28;19925;-78
2022/06/14 04:19:35;;;;;;;;;;;;;;;13.50;56.70;101860.78;5058458;28;20319;-78
2022/06/14 04:22:01;;;;;;;;;;;;;;;13.67;56.13;101861.44;5061016;28;19940;-78
2022/06/14 04:24:26;;;;;;;;;;;;;;;13.66;56.20;101867.50;5061351;28;20592;-78
2022/06/14 04:26:57;;;;;;;;;;;;;;;13.68;56.53;101865.75;5064364;28;19920;-78
2022/06/14 04:29:44;;;;;;;;;;;;;;;13.54;57.85;101860.75;5063344;28;20003;-78
2022/06/14 04:32:24;;;;;;;;;;;;;;;13.75;56.84;101868.25;5063613;28;19921;-81
2022/06/14 04:35:03;;;;;;;;;;;;;;;13.83;56.67;101870.72;5060730;28;19959;-82
2022/06/14 04:38:00;;;;;;;;;;;;;;;13.72;56.39;101872.66;5062912;28;19928;-81
2022/06/14 04:40:29;;;;;;;;;;;;;;;13.64;55.98;101872.75;5016258;28;20016;-82
2022/06/14 04:42:59;;;;;;;;;;;;;;;13.46;56.97;101875.63;5058820;28;19925;-81
2022/06/14 04:45:30;;;;;;;;;;;;;;;13.51;56.69;101876.44;5062402;28;19928;-81
2022/06/14 04:48:04;;;;;;;;;;;;;;;13.40;56.32;101867.94;5060526;28;19921;-82
2022/06/14 04:50:41;;;;;;;;;;;;;;;13.27;56.95;101871.59;5063776;28;20404;-82
2022/06/14 04:53:09;;;;;;;;;;;;;;;13.44;57.26;101872.19;5063918;28;20088;-81
2022/06/14 04:55:37;;;;;;;;;;;;;;;13.85;56.09;101876.78;5066230;28;19931;-81
2022/06/14 04:58:09;;;;;;;;;;;;;;;13.90;55.49;101872.34;5062338;28;20302;-81
2022/06/14 05:00:46;;;;;;;;;;;;;;;13.72;56.82;101878.75;5064404;28;19928;-82
2022/06/14 05:03:12;;;;;;;;;;;;;;;13.53;57.04;101873.78;5065147;28;19920;-81
2022/06/14 05:05:41;;;;;;;;;;;;;;;13.77;56.58;101878.66;5064408;28;20406;-81
2022/06/14 05:08:25;;;;;;;;;;;;;;;13.96;55.48;101872.25;5067879;28;19935;-82
2022/06/14 05:10:55;;;;;;;;;;;;;;;13.76;55.04;101874.31;5065695;28;20409;-82
2022/06/14 05:13:26;;;;;;;;;;;;;;;13.66;55.88;101871.00;5069328;28;19921;-82
2022/06/14 05:16:06;;;;;;;;;;;;;;;13.66;55.79;101865.75;5066474;28;19928;-81
2022/06/14 05:18:55;;;;;;;;;;;;;;;13.74;54.63;101863.03;5064953;28;19978;-81
2022/06/14 05:21:32;;;;;;;;;;;;;;;13.90;54.70;101867.13;5039976;28;19926;-82
2022/06/14 05:23:58;;;;;;;;;;;;;;;14.01;54.49;101859.97;5066811;28;19965;-82
2022/06/14 05:26:26;;;;;;;;;;;;;;;13.90;53.77;101864.53;5068817;28;20013;-82
2022/06/14 05:28:52;;;;;;;;;;;;;;;13.83;54.05;101867.25;5067017;28;19924;-82
2022/06/14 05:31:32;;;;;;;;;;;;;;;13.97;55.07;101860.91;5063664;28;19931;-81
2022/06/14 05:34:10;;;;;;;;;;;;;;;13.87;55.78;101861.97;5063658;28;19928;-82
2022/06/14 05:36:44;;;;;;;;;;;;;;;13.92;53.30;101852.28;5060272;28;19932;-81
2022/06/14 05:39:15;;;;;;;;;;;;;;;13.93;53.97;101855.78;5061713;28;20406;-82
2022/06/14 05:41:44;;;;;;;;;;;;;;;13.79;54.89;101858.59;5065047;28;19925;-82
2022/06/14 05:44:09;;;;;;;;;;;;;;;13.94;55.47;101865.34;5065681;28;19931;-82
2022/06/14 05:46:38;;;;;;;;;;;;;;;13.89;56.09;101868.00;5068402;28;19928;-82
2022/06/14 05:49:08;;;;;;;;;;;;;;;13.92;56.28;101869.72;5062444;28;19928;-82
2022/06/14 05:51:42;;;;;;;;;;;;;;;13.97;56.08;101866.13;5060937;28;19944;-81
2022/06/14 05:54:25;;;;;;;;;;;;;;;14.03;55.74;101863.41;5067197;28;19908;-82
2022/06/14 05:56:59;;;;;;;;;;;;;;;13.88;55.25;101860.22;5062935;28;19928;-82
2022/06/14 05:59:32;;;;;;;;;;;;;;;14.16;55.64;101858.81;5064842;28;19924;-82
2022/06/14 06:02:14;;;;;;;;;;;;;;;14.15;53.98;101859.69;5064985;28;19935;-82
2022/06/14 06:04:43;;;;;;;;;;;;;;;13.87;54.55;101859.34;5063269;28;19930;-82
2022/06/14 06:07:11;;;;;;;;;;;;;;;14.09;54.38;101858.06;5064614;28;19925;-82
2022/06/14 06:09:47;;;;;;;;;;;;;;;14.13;54.33;101862.34;5074832;28;19920;-81
2022/06/14 06:12:19;;;;;;;;;;;;;;;14.11;53.70;101864.16;5073449;28;20028;-77
2022/06/14 06:15:14;;;;;;;;;;;;;;;14.27;53.08;101862.97;5068665;28;20287;-82
2022/06/14 06:17:43;;;;;;;;;;;;;;;14.15;54.91;101865.78;5051261;28;19986;-79
2022/06/14 06:20:28;;;;;;;;;;;;;;;14.28;53.84;101863.81;5065658;28;19928;-77
2022/06/14 06:23:10;;;;;;;;;;;;;;;14.33;53.14;101860.22;5074233;28;20544;-77
2022/06/14 06:25:37;;;;;;;;;;;;;;;14.10;54.46;101858.94;5066308;28;20584;-77
2022/06/14 06:28:06;;;;;;;;;;;;;;;14.23;55.25;101861.28;5066566;28;19985;-77
2022/06/14 06:30:37;;;;;;;;;;;;;;;14.21;55.07;101867.44;5067764;28;19931;-77
2022/06/14 06:33:03;;;;;;;;;;;;;;;14.06;55.78;101873.81;5084921;28;19922;-78
2022/06/14 06:35:34;;;;;;;;;;;;;;;14.19;55.09;101870.09;5069816;28;20007;-79
2022/06/14 06:38:17;;;;;;;;;;;;;;;14.35;54.18;101877.66;5068825;28;19924;-79
2022/06/14 06:41:49;;;;;;;;;;;;;;;14.26;54.90;101871.69;5062632;28;19931;-78
2022/06/14 06:43:33;;;;;;;;;;;;;;;14.27;54.46;101873.41;5060925;28;19932;-79
2022/06/14 06:46:00;;;;;;;;;;;;;;;14.39;54.14;101876.69;5067560;28;19931;-79
2022/06/14 06:48:31;;;;;;;;;;;;;;;14.36;54.07;101879.34;5071402;28;19916;-79
2022/06/14 06:51:02;;;;;;;;;;;;;;;14.40;55.14;101874.06;5069214;28;19962;-79
2022/06/14 06:53:35;;;;;;;;;;;;;;;14.49;54.18;101873.00;5071526;28;19928;-79
2022/06/14 06:56:12;;;;;;;;;;;;;;;14.53;54.07;101878.13;5065089;28;19922;-79
2022/06/14 06:58:37;;;;;;;;;;;;;;;14.53;54.72;101874.69;5066380;28;19932;-79
2022/06/14 07:01:17;;;;;;;;;;;;;;;14.56;54.43;101875.47;5068766;28;19924;-78
2022/06/14 07:04:06;;;;;;;;;;;;;;;14.53;55.29;101872.91;5073451;28;19928;-78
2022/06/14 07:06:40;;;;;;;;;;;;;;;14.53;55.31;101875.50;5058292;28;19924;-78
2022/06/14 07:09:20;;;;;;;;;;;;;;;14.59;55.26;101877.19;5062474;28;20264;-77
2022/06/14 07:11:48;;;;;;;;;;;;;;;14.54;54.29;101879.88;5061110;28;19925;-77
2022/06/14 07:14:14;;;;;;;;;;;;;;;14.67;53.45;101878.75;5063850;28;19928;-83
2022/06/14 07:16:49;;;;;;;;;;;;;;;14.65;53.47;101869.22;5063142;28;19928;-79
2022/06/14 07:19:18;;;;;;;;;;;;;;;14.63;54.30;101869.22;5060675;28;20362;-79
2022/06/14 07:21:47;;;;;;;;;;;;;;;14.69;54.25;101865.63;5063667;28;19935;-78
2022/06/14 07:24:18;;;;;;;;;;;;;;;14.59;54.21;101870.16;5064336;28;19924;-77
2022/06/14 07:26:52;;;;;;;;;;;;;;;14.74;53.98;101872.50;5066868;28;19908;-77
2022/06/14 07:29:29;;;;;;;;;;;;;;;14.71;54.67;101863.84;5061950;28;19973;-76
2022/06/14 07:31:55;;;;;;;;;;;;;;;14.68;54.05;101866.53;5065683;28;19925;-79
2022/06/14 07:34:21;;;;;;;;;;;;;;;14.69;53.97;101865.63;5063047;28;19930;-80
2022/06/14 07:36:46;;;;;;;;;;;;;;;14.72;53.63;101861.19;5060858;28;20664;-80
2022/06/14 07:39:14;;;;;;;;;;;;;;;14.66;54.94;101865.69;5064423;28;19919;-80
2022/06/14 07:41:44;;;;;;;;;;;;;;;14.74;54.14;101867.28;5065766;28;19924;-79
2022/06/14 07:44:12;;;;;;;;;;;;;;;14.73;54.50;101870.78;5062111;28;20003;-82
2022/06/14 07:46:49;;;;;;;;;;;;;;;14.85;53.46;101865.31;5058626;28;19928;-82
2022/06/14 07:49:20;;;;;;;;;;;;;;;14.88;54.55;101867.00;5063659;28;19924;-82
2022/06/14 07:51:50;;;;;;;;;;;;;;;14.91;55.44;101871.31;5062381;28;20013;-79
2022/06/14 07:54:21;;;;;;;;;;;;;;;14.89;55.88;101860.03;5062620;28;19923;-79
2022/06/14 07:56:59;;;;;;;;;;;;;;;14.95;56.05;101865.13;5069720;28;19924;-79
2022/06/14 07:59:30;;;;;;;;;;;;;;;14.93;55.75;101866.88;5063780;28;20403;-79
2022/06/14 08:01:59;;;;;;;;;;;;;;;14.96;54.90;101862.47;5064364;28;20481;-79
2022/06/14 08:04:31;;;;;;;;;;;;;;;14.95;54.42;101857.28;5065318;28;20306;-82
2022/06/14 08:07:00;;;;;;;;;;;;;;;14.97;55.12;101861.56;5060909;28;19977;-82
2022/06/14 08:09:32;;;;;;;;;;;;;;;15.03;55.25;101857.97;5059852;28;19924;-80
2022/06/14 08:11:59;;;;;;;;;;;;;;;15.04;55.54;101859.66;5064380;28;19957;-80
2022/06/14 08:14:31;;;;;;;;;;;;;;;15.06;55.28;101863.13;5061353;28;19961;-80
2022/06/14 08:16:58;;;;;;;;;;;;;;;15.04;55.47;101862.28;5065172;28;19932;-79
2022/06/14 08:19:44;;;;;;;;;;;;;;;15.15;54.72;101855.94;5064582;28;19977;-79
2022/06/14 08:22:12;;;;;;;;;;;;;;;15.12;54.58;101856.00;5063918;28;19940;-79
2022/06/14 08:24:41;;;;;;;;;;;;;;;15.15;54.82;101857.69;5059650;28;19935;-79
2022/06/14 08:27:32;;;;;;;;;;;;;;;15.11;53.73;101856.88;5062522;28;20228;-80
2022/06/14 08:30:04;;;;;;;;;;;;;;;15.23;53.12;101842.66;5060818;28;19924;-79
2022/06/14 08:32:37;;;;;;;;;;;;;;;15.19;53.62;101846.22;5064502;28;19927;-79
2022/06/14 08:35:07;;;;;;;;;;;;;;;15.18;54.12;101844.53;5060738;28;19978;-79
2022/06/14 08:37:42;;;;;;;;;;;;;;;15.22;54.03;101848.78;5061273;28;20565;-79
2022/06/14 08:40:23;;;;;;;;;;;;;;;15.27;54.46;101847.78;5065198;28;20017;-79
2022/06/14 08:42:52;;;;;;;;;;;;;;;15.30;54.00;101847.69;5060887;28;19924;-79
2022/06/14 08:45:33;;;;;;;;;;;;;;;15.34;53.99;101844.13;5060905;28;19919;-79
2022/06/14 08:47:58;;;;;;;;;;;;;;;15.36;54.37;101839.69;5063705;28;19916;-79
2022/06/14 08:50:24;;;;;;;;;;;;;;;15.31;53.50;101836.34;5063986;28;19978;-78
2022/06/14 08:53:08;;;;;;;;;;;;;;;15.35;53.58;101824.06;5060487;28;21854;-78
2022/06/14 08:55:33;;;;;;;;;;;;;;;15.35;53.13;101822.28;5057414;28;19956;-78
2022/06/14 08:58:04;;;;;;;;;;;;;;;15.34;53.83;101819.69;5063454;28;20025;-78
2022/06/14 09:00:29;;;;;;;;;;;;;;;15.35;53.11;101818.81;5062983;28;20387;-78
2022/06/14 09:03:11;;;;;;;;;;;;;;;15.38;53.55;101814.38;5064718;28;19924;-78
2022/06/14 09:05:48;;;;;;;;;;;;;;;15.42;53.60;101805.53;5069996;28;19928;-78
2022/06/14 09:08:26;;;;;;;;;;;;;;;15.42;54.22;101805.53;5065030;28;19925;-78
2022/06/14 09:11:10;;;;;;;;;;;;;;;15.38;54.14;101803.03;5062523;28;19928;-79
2022/06/14 09:13:44;;;;;;;;;;;;;;;15.45;53.73;101796.75;5060487;28;20019;-79
2022/06/14 09:16:19;;;;;;;;;;;;;;;15.44;52.99;101795.03;5060080;28;20892;-77
2022/06/14 09:18:47;;;;;;;;;;;;;;;15.46;53.18;101787.13;5062223;28;19974;-77
2022/06/14 09:21:16;;;;;;;;;;;;;;;15.52;53.35;101790.44;5066062;28;20344;-77
2022/06/14 09:24:20;;;;;;;;;;;;;;;15.55;52.05;101787.75;5070566;28;19920;-76
2022/06/14 09:26:45;;;;;;;;;;;;;;;15.55;53.53;101790.38;4997574;28;20432;-76
2022/06/14 09:29:22;;;;;;;;;;;;;;;15.58;56.33;101792.03;4996872;28;19925;-76
2022/06/14 09:32:06;;;;;;;;;;;;;;;15.60;52.60;101779.78;5033042;28;20419;-76
2022/06/14 09:34:50;;;;;;;;;;;;;;;15.66;54.47;101784.88;5064515;28;19928;-81
2022/06/14 09:37:28;;;;;;;;;;;;;;;15.67;53.92;101781.34;5071098;28;20291;-81
2022/06/14 09:40:19;;;;;;;;;;;;;;;15.68;54.80;101772.59;5071099;28;19924;-81
2022/06/14 09:43:15;;;;;;;;;;;;;;;15.70;55.99;101776.88;5060526;28;21554;-81
2022/06/14 09:45:58;;;;;;;;;;;;;;;15.74;53.72;101775.06;5063641;28;20384;-81
2022/06/14 09:48:35;;;;;;;;;;;;;;;15.71;53.09;101778.63;5070771;28;19916;-81
2022/06/14 09:51:03;;;;;;;;;;;;;;;15.73;52.13;101776.81;5064416;28;19916;-81
2022/06/14 09:53:38;;;;;;;;;;;;;;;15.74;50.09;101780.28;5066828;28;19927;-81
2022/06/14 09:56:12;;;;;;;;;;;;;;;15.73;49.70;101776.81;5064162;28;19936;-81
2022/06/14 09:58:47;;;;;;;;;;;;;;;15.74;49.06;101775.06;5068759;28;19982;-78
2022/06/14 10:01:12;;;;;;;;;;;;;;;15.70;49.52;101771.66;5070847;28;20387;-78
2022/06/14 10:03:48;;;;;;;;;;;;;;;15.74;49.27;101772.44;5062420;28;19921;-78
2022/06/14 10:06:34;;;;;;;;;;;;;;;15.82;49.91;101775.72;5064513;28;19920;-78
2022/06/14 10:09:06;;;;;;;;;;;;;;;15.85;50.07;101773.91;5040606;28;20007;-78
2022/06/14 10:11:47;;;;;;;;;;;;;;;15.80;49.01;101767.94;5070511;28;19920;-78
2022/06/14 10:14:27;;;;;;;;;;;;;;;15.83;49.71;101769.59;5066163;28;19925;-78
2022/06/14 10:16:53;;;;;;;;;;;;;;;15.84;50.86;101763.44;5069585;28;19925;-78
2022/06/14 10:19:18;;;;;;;;;;;;;;;15.85;50.12;101768.66;5070186;28;19986;-78
2022/06/14 10:21:52;;;;;;;;;;;;;;;15.88;49.77;101765.09;5071236;28;19959;-78
2022/06/14 10:24:36;;;;;;;;;;;;;;;15.89;49.93;101761.56;5062575;28;19916;-78
2022/06/14 10:30:15;;;;;;;;;;;;;;;15.89;54.22;101759.81;5065912;28;19970;-78
2022/06/14 10:32:40;;;;;;;;;;;;;;;15.90;50.22;101744.94;5061815;28;19952;-78
2022/06/14 10:35:31;;;;;;;;;;;;;;;15.94;49.99;101752.69;5061792;28;19963;-76
2022/06/14 10:37:56;;;;;;;;;;;;;;;15.94;50.15;101747.44;5067838;28;19927;-78
2022/06/14 10:40:40;;;;;;;;;;;;;;;15.94;49.85;101744.81;5072794;28;20023;-79
2022/06/14 10:43:18;;;;;;;;;;;;;;;15.93;55.48;101757.94;5077752;28;20392;-78
2022/06/14 10:46:06;;;;;;;;;;;;;;;16.02;49.27;101743.75;5082283;28;20356;-79
2022/06/14 10:48:50;;;;;;;;;;;;;;;16.05;48.89;101733.16;5053428;28;20565;-79
2022/06/14 10:51:16;;;;;;;;;;;;;;;16.08;48.84;101733.94;5072413;28;19916;-79
2022/06/14 10:54:01;;;;;;;;;;;;;;;16.10;47.05;101728.66;5068273;28;19919;-79
2022/06/14 10:56:45;;;;;;;;;;;;;;;16.05;48.26;101727.91;5054320;28;19932;-78
2022/06/14 10:59:19;;;;;;;;;;;;;;;16.24;46.94;101724.75;5063199;28;19977;-78
2022/06/14 11:01:44;;;;;;;;;;;;;;;16.21;47.03;101729.22;5056649;28;19917;-78
2022/06/14 11:04:48;;;;;;;;;;;;;;;16.17;48.69;101727.56;5065684;28;19920;-78
2022/06/14 11:07:24;;;;;;;;;;;;;;;16.13;47.67;101724.22;4988088;28;19969;-78
2022/06/14 11:09:58;;;;;;;;;;;;;;;16.15;48.42;101718.91;4995751;28;20030;-78
2022/06/14 11:12:34;;;;;;;;;;;;;;;16.19;46.88;101715.31;5051912;28;19962;-78
2022/06/14 11:14:59;;;;;;;;;;;;;;;16.19;46.14;101705.69;5079537;28;20003;-78
2022/06/14 11:17:24;;;;;;;;;;;;;;;16.19;46.96;101702.19;5072766;28;20022;-78
2022/06/14 11:19:49;;;;;;;;;;;;;;;16.18;46.75;101697.84;5063814;28;21889;-78
2022/06/14 11:22:22;;;;;;;;;;;;;;;16.15;47.14;101698.81;5072655;28;19968;-78
2022/06/14 11:24:59;;;;;;;;;;;;;;;16.21;47.75;101692.50;5062735;28;19982;-78
2022/06/14 11:27:33;;;;;;;;;;;;;;;16.21;48.32;101687.28;5065733;28;19983;-78
2022/06/14 11:30:07;;;;;;;;;;;;;;;16.22;46.90;101689.00;5059799;28;19917;-78
2022/06/14 11:32:52;;;;;;;;;;;;;;;16.25;45.83;101692.41;5071025;28;19928;-78
2022/06/14 11:35:18;;;;;;;;;;;;;;;16.45;44.50;101683.91;5086886;28;20244;-78
2022/06/14 11:37:56;;;;;;;;;;;;;;;16.38;44.82;101683.22;5067125;28;20014;-78
2022/06/14 11:40:23;;;;;;;;;;;;;;;16.34;45.79;101680.75;5063323;28;19924;-79
2022/06/14 11:43:06;;;;;;;;;;;;;;;16.33;44.38;101669.41;5069762;28;20659;-79
2022/06/14 11:45:38;;;;;;;;;;;;;;;16.35;44.34;101674.59;5055535;28;19920;-79
2022/06/14 11:48:09;;;;;;;;;;;;;;;16.38;44.17;101671.88;5067178;28;19916;-79
2022/06/14 11:50:48;;;;;;;;;;;;;;;16.39;42.67;101665.75;5079071;28;19924;-78
2022/06/14 11:53:32;;;;;;;;;;;;;;;16.29;46.30;101665.16;5065925;28;20303;-79
2022/06/14 11:56:05;;;;;;;;;;;;;;;16.44;42.82;101661.19;5060713;28;19924;-79
2022/06/14 11:58:33;;;;;;;;;;;;;;;16.38;43.23;101662.25;5064573;28;20454;-79
2022/06/14 12:01:04;;;;;;;;;;;;;;;16.47;41.93;101653.25;5064157;28;19924;-79
2022/06/14 12:03:30;;;;;;;;;;;;;;;16.44;42.21;101651.56;5064427;28;19920;-79
2022/06/14 12:06:05;;;;;;;;;;;;;;;16.51;42.28;101655.72;5079820;28;19939;-79
2022/06/14 12:08:37;;;;;;;;;;;;;;;16.53;41.94;101656.53;5063732;28;19963;-79
2022/06/14 12:11:18;;;;;;;;;;;;;;;16.51;41.69;101654.88;5072178;28;19926;-79
2022/06/14 12:14:01;;;;;;;;;;;;;;;16.61;39.88;101656.28;5066291;28;20587;-79
2022/06/14 12:16:33;;;;;;;;;;;;;;;16.63;39.63;101644.00;5052097;28;19932;-79
2022/06/14 12:19:09;;;;;;;;;;;;;;;16.60;38.63;101645.84;5070927;28;19952;-78
2022/06/14 12:21:44;;;;;;;;;;;;;;;16.55;40.75;101632.88;5058631;28;19940;-78
2022/06/14 12:24:13;;;;;;;;;;;;;;;16.58;39.08;101637.19;5053640;28;19939;-78
2022/06/14 12:26:51;;;;;;;;;;;;;;;16.62;40.30;101633.53;5064122;28;19935;-79
2022/06/14 12:29:25;;;;;;;;;;;;;;;16.62;38.28;101629.16;5062390;28;20453;-78
2022/06/14 12:31:57;;;;;;;;;;;;;;;16.57;38.72;101623.22;5055315;28;19920;-79
2022/06/14 12:34:35;;;;;;;;;;;;;;;16.65;37.16;101622.94;5062062;28;19920;-79
2022/06/14 12:37:14;;;;;;;;;;;;;;;16.67;37.05;101618.53;5062986;28;20531;-79
2022/06/14 12:39:49;;;;;;;;;;;;;;;16.62;37.92;101617.78;5058811;28;19951;-79
2022/06/14 12:42:21;;;;;;;;;;;;;;;16.79;35.77;101619.00;5064441;28;19920;-79
2022/06/14 12:44:46;;;;;;;;;;;;;;;16.87;35.44;101617.00;5069638;28;20398;-79
2022/06/14 12:47:19;;;;;;;;;;;;;;;16.70;38.37;101600.09;5070171;28;19935;-79
2022/06/14 12:49:47;;;;;;;;;;;;;;;16.46;52.57;101612.22;5063218;28;20076;-78
2022/06/14 12:52:21;;;;;;;;;;;;;;;16.57;43.11;101594.34;5080678;28;20418;-79
2022/06/14 12:55:01;;;;;;;;;;;;;;;16.86;38.98;101588.16;5064356;28;19927;-78
2022/06/14 12:57:36;;;;;;;;;;;;;;;16.94;37.66;101581.72;5063354;28;19959;-79
2022/06/14 13:00:07;;;;;;;;;;;;;;;16.94;38.47;101588.75;5061342;28;19924;-79
2022/06/14 13:03:05;;;;;;;;;;;;;;;16.90;39.51;101577.53;5059089;28;19959;-79
2022/06/14 13:05:37;;;;;;;;;;;;;;;17.03;40.57;101581.41;5018580;28;19960;-79
2022/06/14 13:08:14;;;;;;;;;;;;;;;16.95;41.36;101585.22;5064586;28;19978;-79
2022/06/14 13:10:46;;;;;;;;;;;;;;;16.97;40.08;101573.75;5065767;28;20478;-79
2022/06/14 13:13:17;;;;;;;;;;;;;;;17.10;37.49;101565.44;5071744;28;20437;-79
2022/06/14 13:15:45;;;;;;;;;;;;;;;17.05;37.81;101573.50;5066084;28;19970;-79
2022/06/14 13:18:16;;;;;;;;;;;;;;;17.08;37.82;101576.84;5066698;28;19974;-79